Time;durP1;ratioP1;P1;durP2;ratioP2;P2;SDS_P1;SDS_P2;PMS_P1;PMS_P2;Temp;Humidity;BMP_temperature;BMP_pressure;BME280_temperature;BME280_humidity;BME280_pressure;Samples;Min_cycle;Max_cycle;Signal;HPM_P1;HPM_P2
2022/09/04 00:02:47;;;;;;;0.83;0.83;;;;;;;;;;5114704;27;20240;-59
2022/09/04 00:05:41;;;;;;;0.63;0.63;;;;;;;;;;5114996;27;20310;-59
2022/09/04 00:08:42;;;;;;;0.70;0.70;;;;;;;;;;5116504;27;20216;-58
2022/09/04 00:11:43;;;;;;;0.70;0.70;;;;;;;;;;5118905;27;20200;-58
2022/09/04 00:14:39;;;;;;;0.70;0.70;;;;;;;;;;5115576;27;20677;-59
2022/09/04 00:17:31;;;;;;;0.80;0.80;;;;;;;;;;5120277;27;20217;-59
2022/09/04 00:20:28;;;;;;;1.10;0.80;;;;;;;;;;5115732;27;20753;-58
2022/09/04 00:23:20;;;;;;;0.80;0.80;;;;;;;;;;5116906;27;20593;-59
2022/09/04 00:26:18;;;;;;;0.90;0.90;;;;;;;;;;5120673;27;20687;-58
2022/09/04 00:29:12;;;;;;;0.80;0.80;;;;;;;;;;5122725;27;20220;-58
2022/09/04 00:32:09;;;;;;;0.80;0.80;;;;;;;;;;5119083;27;20234;-58
2022/09/04 00:35:05;;;;;;;0.60;0.60;;;;;;;;;;5122188;27;20713;-58
2022/09/04 00:38:08;;;;;;;0.60;0.60;;;;;;;;;;5128527;27;20678;-59
2022/09/04 00:41:06;;;;;;;0.60;0.60;;;;;;;;;;5116979;27;20845;-59
2022/09/04 00:44:32;;;;;;;0.63;0.63;;;;;;;;;;5117376;28;20293;-58
2022/09/04 00:47:40;;;;;;;0.60;0.60;;;;;;;;;;5115494;28;20208;-58
2022/09/04 00:50:59;;;;;;;0.63;0.63;;;;;;;;;;5119210;28;20215;-59
2022/09/04 00:54:04;;;;;;;1.00;0.60;;;;;;;;;;5111194;28;20195;-59
2022/09/04 00:57:30;;;;;;;0.77;0.77;;;;;;;;;;5121836;28;20284;-58
2022/09/04 01:00:24;;;;;;;0.60;0.60;;;;;;;;;;5115944;28;20216;-59
2022/09/04 01:03:46;;;;;;;0.90;0.60;;;;;;;;;;5118583;28;20636;-62
2022/09/04 01:06:40;;;;;;;0.67;0.67;;;;;;;;;;5086488;27;20223;-62
2022/09/04 01:09:46;;;;;;;0.60;0.60;;;;;;;;;;5117741;28;20293;-62
2022/09/04 01:12:40;;;;;;;0.60;0.60;;;;;;;;;;5111443;28;20229;-62
2022/09/04 01:15:37;;;;;;;0.50;0.50;;;;;;;;;;5117728;28;20210;-62
2022/09/04 01:18:32;;;;;;;0.60;0.60;;;;;;;;;;5119513;28;20606;-63
2022/09/04 01:21:50;;;;;;;0.63;0.63;;;;;;;;;;5115906;28;20228;-62
2022/09/04 01:24:59;;;;;;;0.60;0.60;;;;;;;;;;5104181;28;20227;-62
2022/09/04 01:27:53;;;;;;;0.77;0.70;;;;;;;;;;5111267;28;20210;-62
2022/09/04 01:30:47;;;;;;;0.60;0.60;;;;;;;;;;5117387;28;20200;-62
2022/09/04 01:33:42;;;;;;;0.50;0.50;;;;;;;;;;5120153;27;20296;-62
2022/09/04 01:36:38;;;;;;;0.60;0.60;;;;;;;;;;5121802;27;20209;-63
2022/09/04 01:39:27;;;;;;;0.77;0.77;;;;;;;;;;5124945;27;20206;-62
2022/09/04 01:42:21;;;;;;;0.60;0.60;;;;;;;;;;5121329;27;20243;-62
2022/09/04 01:45:10;;;;;;;0.77;0.77;;;;;;;;;;5127020;27;20211;-62
2022/09/04 01:48:02;;;;;;;0.70;0.70;;;;;;;;;;5121516;27;20218;-63
2022/09/04 01:50:51;;;;;;;0.70;0.70;;;;;;;;;;5118323;27;20215;-62
2022/09/04 01:53:46;;;;;;;0.80;0.80;;;;;;;;;;5124299;27;20199;-62
2022/09/04 01:56:38;;;;;;;0.57;0.57;;;;;;;;;;5117872;27;20294;-62
2022/09/04 01:59:29;;;;;;;0.80;0.80;;;;;;;;;;5123349;27;20215;-62
2022/09/04 02:02:25;;;;;;;0.77;0.77;;;;;;;;;;5118965;27;20264;-62
2022/09/04 02:05:18;;;;;;;0.97;0.97;;;;;;;;;;5123731;27;20584;-62
2022/09/04 02:08:35;;;;;;;0.90;0.90;;;;;;;;;;5121631;27;20215;-62
2022/09/04 02:11:25;;;;;;;0.93;0.93;;;;;;;;;;5122214;27;20204;-62
2022/09/04 02:14:27;;;;;;;0.90;0.90;;;;;;;;;;5119000;27;20248;-62
2022/09/04 02:17:26;;;;;;;0.93;0.93;;;;;;;;;;5119924;27;20225;-62
2022/09/04 02:20:23;;;;;;;0.83;0.83;;;;;;;;;;5119741;27;20203;-62
2022/09/04 02:23:18;;;;;;;1.00;1.00;;;;;;;;;;5121887;27;20228;-62
2022/09/04 02:26:16;;;;;;;0.80;0.80;;;;;;;;;;5120581;27;20215;-62
2022/09/04 02:29:14;;;;;;;1.17;1.17;;;;;;;;;;5122474;27;20887;-62
2022/09/04 02:32:06;;;;;;;1.23;1.23;;;;;;;;;;5124797;27;20194;-63
2022/09/04 02:35:01;;;;;;;1.00;1.00;;;;;;;;;;5117359;27;20223;-62
2022/09/04 02:37:59;;;;;;;1.40;1.30;;;;;;;;;;5117935;27;20281;-62
2022/09/04 02:40:51;;;;;;;1.40;1.30;;;;;;;;;;5124154;27;20207;-62
2022/09/04 02:43:52;;;;;;;1.57;1.47;;;;;;;;;;5118503;27;20222;-62
2022/09/04 02:46:51;;;;;;;1.17;1.17;;;;;;;;;;5116580;27;20287;-62
2022/09/04 02:49:51;;;;;;;1.10;1.10;;;;;;;;;;5122298;27;20205;-62
2022/09/04 02:52:53;;;;;;;1.10;1.10;;;;;;;;;;5120255;27;20757;-62
2022/09/04 02:55:57;;;;;;;1.13;1.13;;;;;;;;;;5117712;27;20552;-62
2022/09/04 02:58:57;;;;;;;1.07;1.07;;;;;;;;;;5122300;27;20301;-62
2022/09/04 03:01:52;;;;;;;1.60;1.50;;;;;;;;;;5113960;27;20264;-62
2022/09/04 03:04:48;;;;;;;1.60;1.50;;;;;;;;;;5121524;27;20747;-62
2022/09/04 03:07:39;;;;;;;1.30;1.30;;;;;;;;;;5123771;27;20286;-63
2022/09/04 03:10:31;;;;;;;1.40;1.30;;;;;;;;;;5124456;27;20683;-62
2022/09/04 03:13:26;;;;;;;1.30;1.30;;;;;;;;;;5117230;27;20204;-62
2022/09/04 03:16:21;;;;;;;1.20;1.20;;;;;;;;;;5120671;27;20214;-62
2022/09/04 03:19:17;;;;;;;1.30;1.30;;;;;;;;;;5122357;27;20629;-62
2022/09/04 03:22:10;;;;;;;1.20;1.20;;;;;;;;;;5119523;27;20329;-62
2022/09/04 03:25:06;;;;;;;1.27;1.27;;;;;;;;;;5120872;27;20612;-62
2022/09/04 03:27:54;;;;;;;1.53;1.43;;;;;;;;;;5119297;27;20201;-62
2022/09/04 03:30:41;;;;;;;1.50;1.40;;;;;;;;;;5119860;27;20678;-62
2022/09/04 03:33:35;;;;;;;1.13;1.13;;;;;;;;;;5120287;27;20312;-62
2022/09/04 03:36:33;;;;;;;1.43;1.33;;;;;;;;;;5120759;27;20704;-62
2022/09/04 03:39:26;;;;;;;1.53;1.43;;;;;;;;;;5116956;27;20210;-62
2022/09/04 03:42:22;;;;;;;1.43;1.33;;;;;;;;;;5117304;27;20208;-62
2022/09/04 03:45:24;;;;;;;1.50;1.40;;;;;;;;;;5121564;27;20211;-62
2022/09/04 03:48:25;;;;;;;1.37;1.27;;;;;;;;;;5118095;27;20219;-62
2022/09/04 03:51:23;;;;;;;1.67;1.57;;;;;;;;;;5120051;27;20248;-62
2022/09/04 03:54:23;;;;;;;1.47;1.43;;;;;;;;;;5116261;27;20203;-62
2022/09/04 03:57:29;;;;;;;1.37;1.37;;;;;;;;;;5117520;27;20217;-62
2022/09/04 04:00:20;;;;;;;1.30;1.27;;;;;;;;;;5117393;27;20220;-62
2022/09/04 04:03:33;;;;;;;1.10;1.10;;;;;;;;;;5118505;27;20229;-62
2022/09/04 04:06:27;;;;;;;1.30;1.30;;;;;;;;;;5127862;27;20725;-62
2022/09/04 04:09:30;;;;;;;1.10;1.10;;;;;;;;;;5119449;27;20219;-62
2022/09/04 04:12:44;;;;;;;1.33;1.20;;;;;;;;;;5116370;27;20211;-62
2022/09/04 04:15:44;;;;;;;1.10;1.10;;;;;;;;;;5121342;27;20285;-62
2022/09/04 04:18:51;;;;;;;1.20;1.20;;;;;;;;;;5120693;27;20215;-62
2022/09/04 04:21:54;;;;;;;1.27;1.20;;;;;;;;;;5118016;27;20194;-62
2022/09/04 04:25:11;;;;;;;1.40;1.40;;;;;;;;;;5118072;27;20227;-62
2022/09/04 04:28:16;;;;;;;1.33;1.30;;;;;;;;;;5097194;27;20366;-62
2022/09/04 04:31:16;;;;;;;1.50;1.40;;;;;;;;;;5119682;27;20206;-62
2022/09/04 04:34:10;;;;;;;1.53;1.43;;;;;;;;;;5120667;27;20246;-62
2022/09/04 04:37:12;;;;;;;1.60;1.50;;;;;;;;;;5120904;27;20216;-62
2022/09/04 04:40:06;;;;;;;1.47;1.47;;;;;;;;;;5116893;27;20580;-62
2022/09/04 04:43:00;;;;;;;1.43;1.43;;;;;;;;;;5121665;27;20213;-62
2022/09/04 04:45:55;;;;;;;1.00;1.00;;;;;;;;;;5121636;27;20211;-62
2022/09/04 04:48:59;;;;;;;1.40;1.40;;;;;;;;;;5115990;28;20753;-62
2022/09/04 04:52:19;;;;;;;1.30;1.30;;;;;;;;;;5120937;28;20588;-62
2022/09/04 04:55:16;;;;;;;1.50;1.40;;;;;;;;;;5122339;28;20213;-62
2022/09/04 04:58:24;;;;;;;1.57;1.47;;;;;;;;;;5120370;28;20237;-62
2022/09/04 05:01:23;;;;;;;2.40;1.40;;;;;;;;;;5120913;28;20336;-63
2022/09/04 05:04:20;;;;;;;1.43;1.43;;;;;;;;;;5117933;28;20223;-62
2022/09/04 05:07:13;;;;;;;1.50;1.40;;;;;;;;;;5119069;27;20307;-62
2022/09/04 05:10:08;;;;;;;1.07;1.07;;;;;;;;;;5119930;27;20236;-62
2022/09/04 05:13:06;;;;;;;1.30;1.30;;;;;;;;;;5120023;27;20271;-62
2022/09/04 05:16:00;;;;;;;1.27;1.27;;;;;;;;;;5118121;27;20202;-62
2022/09/04 05:18:55;;;;;;;1.23;1.17;;;;;;;;;;5120573;27;20785;-62
2022/09/04 05:21:50;;;;;;;1.53;1.43;;;;;;;;;;5118207;27;20358;-62
2022/09/04 05:24:48;;;;;;;1.23;1.23;;;;;;;;;;5122422;27;20587;-62
2022/09/04 05:27:51;;;;;;;1.27;1.27;;;;;;;;;;5123306;27;20244;-62
2022/09/04 05:30:47;;;;;;;1.47;1.40;;;;;;;;;;5120198;27;20827;-62
2022/09/04 05:33:40;;;;;;;1.60;1.50;;;;;;;;;;5118980;27;20240;-62
2022/09/04 05:36:39;;;;;;;1.90;1.80;;;;;;;;;;5118277;27;20229;-62
2022/09/04 05:39:31;;;;;;;1.50;1.50;;;;;;;;;;5123990;27;20807;-62
2022/09/04 05:42:41;;;;;;;1.30;1.30;;;;;;;;;;5122863;27;20210;-62
2022/09/04 05:45:37;;;;;;;1.57;1.57;;;;;;;;;;5125410;27;20366;-62
2022/09/04 05:48:30;;;;;;;1.50;1.50;;;;;;;;;;5129985;27;20276;-62
2022/09/04 05:51:47;;;;;;;2.07;1.80;;;;;;;;;;5121499;27;20219;-62
2022/09/04 05:55:06;;;;;;;1.70;1.60;;;;;;;;;;5119471;27;20301;-62
2022/09/04 05:58:09;;;;;;;1.60;1.50;;;;;;;;;;5121298;27;20237;-62
2022/09/04 06:01:07;;;;;;;1.80;1.70;;;;;;;;;;5116231;27;20208;-62
2022/09/04 06:04:26;;;;;;;1.43;1.40;;;;;;;;;;5124620;27;20278;-62
2022/09/04 06:07:21;;;;;;;1.80;1.70;;;;;;;;;;5120055;27;20229;-62
2022/09/04 06:10:16;;;;;;;1.50;1.50;;;;;;;;;;5120650;27;20210;-62
2022/09/04 06:13:25;;;;;;;1.80;1.70;;;;;;;;;;5121309;27;20213;-62
2022/09/04 06:16:33;;;;;;;1.57;1.47;;;;;;;;;;5116293;27;20217;-62
2022/09/04 06:19:38;;;;;;;1.67;1.57;;;;;;;;;;5120062;27;20203;-62
2022/09/04 06:22:51;;;;;;;1.70;1.60;;;;;;;;;;5119124;27;20294;-62
2022/09/04 06:25:58;;;;;;;1.80;1.70;;;;;;;;;;5123886;27;20223;-62
2022/09/04 06:29:14;;;;;;;1.63;1.53;;;;;;;;;;5119828;27;20322;-62
2022/09/04 06:32:20;;;;;;;1.47;1.47;;;;;;;;;;5118034;27;20205;-63
2022/09/04 06:35:18;;;;;;;1.60;1.50;;;;;;;;;;5120059;27;20250;-62
2022/09/04 06:38:21;;;;;;;1.43;1.37;;;;;;;;;;5121269;27;20694;-62
2022/09/04 06:41:28;;;;;;;1.30;1.30;;;;;;;;;;5119860;27;20208;-62
2022/09/04 06:44:28;;;;;;;1.40;1.40;;;;;;;;;;5119047;27;20241;-62
2022/09/04 06:47:26;;;;;;;1.40;1.40;;;;;;;;;;5117889;27;20209;-62
2022/09/04 06:50:22;;;;;;;1.20;1.20;;;;;;;;;;5124569;27;20210;-62
2022/09/04 06:53:20;;;;;;;1.50;1.50;;;;;;;;;;5118440;27;20202;-63
2022/09/04 06:56:22;;;;;;;1.27;1.27;;;;;;;;;;5117581;27;20732;-62
2022/09/04 06:59:32;;;;;;;1.33;1.33;;;;;;;;;;5120633;27;20237;-62
2022/09/04 07:02:33;;;;;;;1.70;1.60;;;;;;;;;;5119030;27;20204;-62
2022/09/04 07:05:28;;;;;;;1.80;1.70;;;;;;;;;;5117330;27;20322;-62
2022/09/04 07:08:26;;;;;;;0.98;0.98;;;;;;;;;;5119507;27;20204;-63
2022/09/04 07:11:24;;;;;;;1.95;1.45;;;;;;;;;;5117908;27;20209;-62
2022/09/04 07:14:24;;;;;;;1.10;1.10;;;;;;;;;;5119732;27;20339;-62
2022/09/04 07:17:19;;;;;;;1.40;1.40;;;;;;;;;;5114264;27;20305;-62
2022/09/04 07:20:15;;;;;;;1.20;1.20;;;;;;;;;;5122250;27;20208;-62
2022/09/04 07:23:22;;;;;;;1.10;1.10;;;;;;;;;;5115108;27;20236;-63
2022/09/04 07:26:27;;;;;;;1.38;1.38;;;;;;;;;;5118065;27;20671;-60
2022/09/04 07:29:29;;;;;;;1.10;1.10;;;;;;;;;;5117759;27;20201;-61
2022/09/04 07:32:21;;;;;;;1.30;1.30;;;;;;;;;;5115634;27;20204;-60
2022/09/04 07:35:16;;;;;;;1.08;1.08;;;;;;;;;;5116056;27;20320;-61
2022/09/04 07:38:13;;;;;;;1.00;1.00;;;;;;;;;;5120308;27;20197;-61
2022/09/04 07:41:09;;;;;;;0.90;0.90;;;;;;;;;;5117280;27;20243;-61
2022/09/04 07:44:06;;;;;;;1.10;1.10;;;;;;;;;;5116195;27;20628;-61
2022/09/04 07:47:04;;;;;;;0.90;0.90;;;;;;;;;;5118042;27;20201;-61
2022/09/04 07:50:01;;;;;;;0.70;0.70;;;;;;;;;;5116881;27;20205;-61
2022/09/04 07:53:03;;;;;;;0.77;0.77;;;;;;;;;;5114624;27;20963;-61
2022/09/04 07:55:54;;;;;;;1.00;1.00;;;;;;;;;;5121220;27;20551;-61
2022/09/04 07:58:57;;;;;;;0.73;0.73;;;;;;;;;;5117198;27;20201;-61
2022/09/04 08:02:01;;;;;;;0.80;0.80;;;;;;;;;;5118739;27;20201;-61
2022/09/04 08:05:15;;;;;;;0.63;0.63;;;;;;;;;;5114405;27;20635;-61
2022/09/04 08:08:36;;;;;;;0.77;0.77;;;;;;;;;;5122128;27;20220;-61
2022/09/04 08:11:37;;;;;;;0.75;0.75;;;;;;;;;;5116464;27;20655;-61
2022/09/04 08:14:48;;;;;;;0.65;0.65;;;;;;;;;;5116923;27;20583;-61
2022/09/04 08:18:23;;;;;;;0.88;0.88;;;;;;;;;;5115080;27;20208;-60
2022/09/04 08:21:21;;;;;;;0.63;0.60;;;;;;;;;;5014366;28;20360;-60
2022/09/04 08:24:57;;;;;;;0.73;0.73;;;;;;;;;;5014944;28;20215;-60
2022/09/04 08:28:04;;;;;;;0.52;0.52;;;;;;;;;;5036950;28;20200;-62
2022/09/04 08:30:56;;;;;;;0.73;0.73;;;;;;;;;;5037578;28;20203;-63
2022/09/04 08:33:58;;;;;;;0.60;0.60;;;;;;;;;;5114080;27;20234;-61
2022/09/04 08:36:55;;;;;;;0.60;0.60;;;;;;;;;;5120708;27;20638;-62
2022/09/04 08:39:51;;;;;;;0.60;0.60;;;;;;;;;;5119440;27;20205;-62
2022/09/04 08:43:02;;;;;;;0.77;0.77;;;;;;;;;;5116874;27;20297;-61
2022/09/04 08:46:19;;;;;;;0.75;0.75;;;;;;;;;;5118989;27;20225;-61
2022/09/04 08:49:52;;;;;;;0.75;0.75;;;;;;;;;;5115502;28;20209;-62
2022/09/04 08:53:09;;;;;;;0.63;0.63;;;;;;;;;;5077124;28;20243;-62
2022/09/04 08:56:09;;;;;;;0.75;0.75;;;;;;;;;;5118468;28;20205;-62
2022/09/04 08:59:33;;;;;;;0.77;0.77;;;;;;;;;;5120684;28;20288;-62
2022/09/04 09:03:01;;;;;;;0.82;0.80;;;;;;;;;;5117561;28;20230;-61
2022/09/04 09:06:05;;;;;;;0.70;0.70;;;;;;;;;;5116620;28;20495;-62
2022/09/04 09:09:28;;;;;;;0.80;0.80;;;;;;;;;;5119138;28;20245;-62
2022/09/04 09:12:55;;;;;;;0.50;0.50;;;;;;;;;;5116613;28;20223;-62
2022/09/04 09:15:55;;;;;;;0.65;0.65;;;;;;;;;;5098327;28;20244;-62
2022/09/04 09:18:59;;;;;;;0.57;0.57;;;;;;;;;;5122757;28;20212;-62
2022/09/04 09:22:02;;;;;;;0.63;0.63;;;;;;;;;;5120407;28;20208;-61
2022/09/04 09:25:10;;;;;;;0.70;0.70;;;;;;;;;;5118318;28;20235;-62
2022/09/04 09:28:44;;;;;;;0.70;0.70;;;;;;;;;;5115834;28;20217;-62
2022/09/04 09:32:15;;;;;;;0.60;0.60;;;;;;;;;;5096720;28;20213;-62
2022/09/04 09:35:40;;;;;;;0.60;0.60;;;;;;;;;;5092362;28;20236;-62
2022/09/04 09:38:51;;;;;;;0.50;0.50;;;;;;;;;;5113662;28;20210;-62
2022/09/04 09:42:08;;;;;;;0.57;0.57;;;;;;;;;;5116588;27;20667;-62
2022/09/04 09:45:26;;;;;;;0.70;0.70;;;;;;;;;;5119242;28;20224;-61
2022/09/04 09:48:48;;;;;;;0.60;0.60;;;;;;;;;;5122235;28;20217;-61
2022/09/04 09:52:19;;;;;;;0.50;0.50;;;;;;;;;;5113066;28;20677;-61
2022/09/04 09:55:38;;;;;;;0.50;0.50;;;;;;;;;;5117106;27;20228;-61
2022/09/04 09:59:01;;;;;;;0.45;0.45;;;;;;;;;;5119074;27;20213;-62
2022/09/04 10:02:25;;;;;;;0.52;0.52;;;;;;;;;;5119972;27;20763;-61
2022/09/04 10:05:39;;;;;;;0.60;0.60;;;;;;;;;;5119827;27;20267;-61
2022/09/04 10:09:12;;;;;;;0.63;0.63;;;;;;;;;;5116167;27;20198;-61
2022/09/04 10:12:22;;;;;;;0.57;0.57;;;;;;;;;;5119301;27;20222;-61
2022/09/04 10:15:59;;;;;;;0.50;0.50;;;;;;;;;;5120072;27;20213;-61
2022/09/04 10:19:09;;;;;;;0.32;0.32;;;;;;;;;;5116429;27;20203;-62
2022/09/04 10:22:29;;;;;;;0.40;0.40;;;;;;;;;;5121701;27;20197;-62
2022/09/04 10:25:53;;;;;;;0.60;0.60;;;;;;;;;;5121396;27;20702;-62
2022/09/04 10:29:18;;;;;;;0.47;0.47;;;;;;;;;;5119385;27;20269;-62
2022/09/04 10:32:19;;;;;;;0.30;0.30;;;;;;;;;;5115770;27;20214;-63
2022/09/04 10:35:24;;;;;;;0.47;0.47;;;;;;;;;;5117517;27;20275;-63
2022/09/04 10:40:34;;;;;;;0.30;0.30;;;;;;;;;;5122295;27;20212;-63
2022/09/04 10:42:01;;;;;;;0.50;0.50;;;;;;;;;;5117260;27;20590;-63
2022/09/04 10:45:06;;;;;;;0.30;0.30;;;;;;;;;;5119503;27;20549;-63
2022/09/04 10:48:21;;;;;;;0.43;0.43;;;;;;;;;;5117836;27;20201;-62
2022/09/04 10:51:40;;;;;;;0.40;0.40;;;;;;;;;;5114634;27;20217;-63
2022/09/04 10:55:08;;;;;;;0.30;0.30;;;;;;;;;;5076618;27;20210;-63
2022/09/04 10:58:16;;;;;;;0.40;0.40;;;;;;;;;;5082461;27;20212;-63
2022/09/04 11:01:28;;;;;;;0.43;0.43;;;;;;;;;;5115562;27;20203;-63
2022/09/04 11:04:51;;;;;;;0.30;0.30;;;;;;;;;;5093428;27;20221;-63
2022/09/04 11:08:06;;;;;;;0.30;0.30;;;;;;;;;;5119370;27;20196;-62
2022/09/04 11:11:17;;;;;;;0.30;0.30;;;;;;;;;;5119547;27;20204;-63
2022/09/04 11:14:27;;;;;;;0.63;0.30;;;;;;;;;;5126420;27;20200;-63
2022/09/04 11:17:40;;;;;;;0.25;0.25;;;;;;;;;;5119869;27;20662;-63
2022/09/04 11:20:55;;;;;;;0.40;0.40;;;;;;;;;;5113818;27;20610;-63
2022/09/04 11:24:22;;;;;;;0.30;0.30;;;;;;;;;;5116098;27;20712;-63
2022/09/04 11:27:50;;;;;;;1.45;0.50;;;;;;;;;;5118315;27;20692;-62
2022/09/04 11:30:55;;;;;;;0.50;0.50;;;;;;;;;;5113473;27;20197;-62
2022/09/04 11:34:22;;;;;;;0.20;0.20;;;;;;;;;;5117451;27;20603;-63
2022/09/04 11:37:55;;;;;;;0.30;0.30;;;;;;;;;;5118147;27;20202;-63
2022/09/04 11:41:19;;;;;;;0.50;0.45;;;;;;;;;;5119772;27;20212;-63
2022/09/04 11:44:35;;;;;;;0.30;0.30;;;;;;;;;;5117913;27;20556;-62
2022/09/04 11:48:04;;;;;;;0.22;0.22;;;;;;;;;;5117387;27;20210;-63
2022/09/04 11:51:39;;;;;;;0.50;0.50;;;;;;;;;;5054196;27;20215;-64
2022/09/04 11:54:57;;;;;;;0.30;0.30;;;;;;;;;;5118449;27;20693;-63
2022/09/04 11:58:14;;;;;;;0.30;0.30;;;;;;;;;;5116838;27;20200;-63
2022/09/04 12:01:19;;;;;;;0.35;0.30;;;;;;;;;;5118741;27;20228;-63
2022/09/04 12:04:34;;;;;;;0.85;0.40;;;;;;;;;;5118845;27;20367;-62
2022/09/04 12:07:33;;;;;;;0.40;0.40;;;;;;;;;;5116694;27;20216;-63
2022/09/04 12:10:29;;;;;;;0.30;0.30;;;;;;;;;;5123954;27;20213;-63
2022/09/04 12:13:45;;;;;;;0.25;0.25;;;;;;;;;;5114515;27;20759;-63
2022/09/04 12:17:30;;;;;;;1.42;0.35;;;;;;;;;;5116944;27;20203;-63
2022/09/04 12:20:51;;;;;;;0.20;0.20;;;;;;;;;;5077480;27;20216;-63
2022/09/04 12:24:19;;;;;;;0.20;0.20;;;;;;;;;;5119052;27;20223;-63
2022/09/04 12:27:26;;;;;;;0.63;0.40;;;;;;;;;;5114415;27;20221;-62
2022/09/04 12:30:18;;;;;;;0.45;0.30;;;;;;;;;;5117850;27;20284;-63
2022/09/04 12:33:33;;;;;;;0.50;0.50;;;;;;;;;;5119726;27;20216;-62
2022/09/04 12:37:00;;;;;;;0.88;0.88;;;;;;;;;;5118921;27;21211;-63
2022/09/04 12:40:23;;;;;;;2.92;2.63;;;;;;;;;;5118610;27;20201;-64
2022/09/04 12:43:23;;;;;;;11.82;7.40;;;;;;;;;;5086448;27;20285;-63
2022/09/04 12:46:22;;;;;;;22.77;12.50;;;;;;;;;;5125795;27;20313;-62
2022/09/04 12:49:27;;;;;;;20.90;11.52;;;;;;;;;;5116611;28;20220;-62
2022/09/04 12:52:24;;;;;;;22.05;12.40;;;;;;;;;;5115972;28;20205;-63
2022/09/04 12:55:16;;;;;;;27.95;13.65;;;;;;;;;;5114912;28;20630;-63
2022/09/04 12:58:16;;;;;;;24.13;12.65;;;;;;;;;;5118391;28;20216;-63
2022/09/04 13:01:14;;;;;;;23.60;13.07;;;;;;;;;;5115226;28;20198;-63
2022/09/04 13:04:11;;;;;;;26.02;13.90;;;;;;;;;;5118821;28;20208;-63
2022/09/04 13:07:23;;;;;;;22.80;13.27;;;;;;;;;;5115878;28;20230;-62
2022/09/04 13:10:21;;;;;;;21.90;12.82;;;;;;;;;;5116639;28;20283;-63
2022/09/04 13:13:17;;;;;;;19.63;12.77;;;;;;;;;;5119382;28;20208;-63
2022/09/04 13:16:14;;;;;;;22.63;12.90;;;;;;;;;;5117170;28;20703;-65
2022/09/04 13:19:10;;;;;;;27.65;13.02;;;;;;;;;;5114141;27;20220;-63
2022/09/04 13:22:10;;;;;;;25.20;13.07;;;;;;;;;;5116767;28;20659;-63
2022/09/04 13:25:07;;;;;;;21.83;12.30;;;;;;;;;;5119422;28;20222;-63
2022/09/04 13:28:05;;;;;;;23.13;12.90;;;;;;;;;;5118628;27;20201;-62
2022/09/04 13:31:12;;;;;;;21.27;11.85;;;;;;;;;;5114264;27;20202;-63
2022/09/04 13:34:12;;;;;;;21.40;12.52;;;;;;;;;;5114493;27;20897;-63
2022/09/04 13:37:08;;;;;;;22.25;12.38;;;;;;;;;;5125896;27;20283;-63
2022/09/04 13:40:11;;;;;;;21.20;11.38;;;;;;;;;;5120731;27;20284;-63
2022/09/04 13:43:32;;;;;;;18.02;10.70;;;;;;;;;;5120568;27;20254;-63
2022/09/04 13:46:23;;;;;;;21.17;11.75;;;;;;;;;;5127485;27;20284;-63
2022/09/04 13:49:16;;;;;;;20.77;11.68;;;;;;;;;;5122939;27;20214;-63
2022/09/04 13:52:07;;;;;;;16.48;10.77;;;;;;;;;;5121529;27;20216;-62
2022/09/04 13:55:02;;;;;;;15.18;10.63;;;;;;;;;;5120346;27;20676;-62
2022/09/04 13:57:58;;;;;;;18.40;10.82;;;;;;;;;;5123577;27;20654;-65
2022/09/04 14:00:48;;;;;;;17.10;10.32;;;;;;;;;;5118225;27;20682;-62
2022/09/04 14:03:39;;;;;;;17.63;10.50;;;;;;;;;;5120760;27;20213;-63
2022/09/04 14:06:30;;;;;;;15.45;10.13;;;;;;;;;;5123969;27;20240;-62
2022/09/04 14:09:17;;;;;;;16.90;9.45;;;;;;;;;;5113559;27;20687;-62
2022/09/04 14:12:31;;;;;;;15.23;9.70;;;;;;;;;;5123590;27;20208;-62
2022/09/04 14:15:54;;;;;;;16.20;9.30;;;;;;;;;;5117674;27;20257;-62
2022/09/04 14:19:10;;;;;;;16.90;9.18;;;;;;;;;;5113327;27;20553;-62
2022/09/04 14:22:14;;;;;;;17.15;9.88;;;;;;;;;;5119702;27;20198;-63
2022/09/04 14:25:10;;;;;;;12.80;9.02;;;;;;;;;;5120971;27;20775;-63
2022/09/04 14:28:02;;;;;;;14.80;8.82;;;;;;;;;;5114295;27;20707;-62
2022/09/04 14:30:59;;;;;;;13.98;8.48;;;;;;;;;;5119048;27;20209;-63
2022/09/04 14:33:55;;;;;;;13.48;8.60;;;;;;;;;;5122951;27;20683;-63
2022/09/04 14:36:55;;;;;;;13.38;8.30;;;;;;;;;;5116887;27;20210;-62
2022/09/04 14:39:47;;;;;;;11.63;7.82;;;;;;;;;;5119551;27;20216;-62
2022/09/04 14:42:46;;;;;;;14.77;8.80;;;;;;;;;;5119942;27;20202;-62
2022/09/04 14:46:03;;;;;;;13.05;8.48;;;;;;;;;;5122954;27;20208;-62
2022/09/04 14:49:01;;;;;;;11.70;7.43;;;;;;;;;;5120753;27;20206;-63
2022/09/04 14:51:55;;;;;;;9.45;7.68;;;;;;;;;;5120142;27;20216;-62
2022/09/04 14:54:45;;;;;;;10.55;7.68;;;;;;;;;;5117974;27;20202;-62
2022/09/04 14:57:38;;;;;;;10.95;7.47;;;;;;;;;;5121142;27;20212;-63
2022/09/04 15:00:28;;;;;;;11.55;7.72;;;;;;;;;;5120393;27;20205;-62
2022/09/04 15:03:21;;;;;;;10.52;7.85;;;;;;;;;;5117129;27;20585;-63
2022/09/04 15:06:15;;;;;;;9.90;6.82;;;;;;;;;;5117169;27;20241;-62
2022/09/04 15:09:24;;;;;;;9.18;6.88;;;;;;;;;;5120946;27;20669;-63
2022/09/04 15:12:19;;;;;;;10.80;6.72;;;;;;;;;;5118064;27;20209;-62
2022/09/04 15:15:11;;;;;;;8.93;7.03;;;;;;;;;;5121390;27;20243;-62
2022/09/04 15:18:03;;;;;;;8.45;6.50;;;;;;;;;;5119466;27;20231;-63
2022/09/04 15:20:57;;;;;;;9.77;5.70;;;;;;;;;;5115180;27;20298;-63
2022/09/04 15:23:51;;;;;;;9.73;6.22;;;;;;;;;;5121723;27;20209;-64
2022/09/04 15:26:43;;;;;;;7.68;6.03;;;;;;;;;;5118055;27;20766;-62
2022/09/04 15:29:39;;;;;;;8.75;6.20;;;;;;;;;;5125499;27;20206;-63
2022/09/04 15:32:30;;;;;;;7.40;6.05;;;;;;;;;;5117452;27;20232;-62
2022/09/04 15:35:22;;;;;;;5.78;5.18;;;;;;;;;;5126663;27;20237;-62
2022/09/04 15:38:19;;;;;;;8.20;5.70;;;;;;;;;;5121142;27;20227;-62
2022/09/04 15:41:18;;;;;;;7.60;5.70;;;;;;;;;;5118088;27;20210;-62
2022/09/04 15:44:17;;;;;;;8.75;6.25;;;;;;;;;;5120462;27;20215;-62
2022/09/04 15:47:15;;;;;;;7.15;5.70;;;;;;;;;;5119037;27;20236;-62
2022/09/04 15:50:07;;;;;;;6.43;5.22;;;;;;;;;;5119324;27;20232;-63
2022/09/04 15:53:00;;;;;;;6.60;5.20;;;;;;;;;;5118219;27;20212;-62
2022/09/04 15:56:05;;;;;;;6.05;5.38;;;;;;;;;;5115492;27;20216;-63
2022/09/04 15:59:00;;;;;;;5.65;4.57;;;;;;;;;;5120983;27;20264;-63
2022/09/04 16:01:56;;;;;;;6.18;4.85;;;;;;;;;;5118394;27;20253;-62
2022/09/04 16:04:52;;;;;;;5.53;4.70;;;;;;;;;;5119521;27;20216;-62
2022/09/04 16:07:45;;;;;;;4.88;4.38;;;;;;;;;;5114424;27;20268;-62
2022/09/04 16:10:53;;;;;;;5.63;4.97;;;;;;;;;;5116807;27;20200;-63
2022/09/04 16:13:51;;;;;;;4.60;4.20;;;;;;;;;;5120963;27;20203;-62
2022/09/04 16:16:42;;;;;;;5.05;4.50;;;;;;;;;;5120562;27;20221;-62
2022/09/04 16:19:35;;;;;;;5.32;3.92;;;;;;;;;;5118537;27;20205;-62
2022/09/04 16:22:33;;;;;;;5.07;4.30;;;;;;;;;;5117117;27;20204;-62
2022/09/04 16:25:26;;;;;;;4.85;4.20;;;;;;;;;;5118457;27;20285;-63
2022/09/04 16:28:24;;;;;;;5.95;4.35;;;;;;;;;;5121869;27;20743;-62
2022/09/04 16:31:13;;;;;;;4.87;4.20;;;;;;;;;;5118435;27;20584;-62
2022/09/04 16:34:03;;;;;;;5.37;4.13;;;;;;;;;;5116840;27;20295;-62
2022/09/04 16:37:00;;;;;;;4.37;3.97;;;;;;;;;;5118451;27;20199;-64
2022/09/04 16:40:11;;;;;;;3.88;3.58;;;;;;;;;;5117580;27;20584;-62
2022/09/04 16:43:02;;;;;;;4.10;3.60;;;;;;;;;;5118061;27;20203;-63
2022/09/04 16:45:53;;;;;;;3.90;3.50;;;;;;;;;;5123594;27;20686;-62
2022/09/04 16:48:51;;;;;;;3.83;3.23;;;;;;;;;;5115981;27;20200;-62
2022/09/04 16:51:43;;;;;;;3.63;3.33;;;;;;;;;;5119388;28;20252;-63
2022/09/04 16:54:36;;;;;;;4.05;3.30;;;;;;;;;;5118286;28;20768;-63
2022/09/04 16:57:32;;;;;;;3.70;3.40;;;;;;;;;;5116428;27;20212;-62
2022/09/04 17:00:21;;;;;;;6.75;3.45;;;;;;;;;;5114897;27;20317;-62
2022/09/04 17:03:20;;;;;;;3.23;2.93;;;;;;;;;;5120048;27;20203;-62
2022/09/04 17:06:20;;;;;;;3.17;2.87;;;;;;;;;;5122775;27;20225;-63
2022/09/04 17:09:09;;;;;;;2.63;2.43;;;;;;;;;;5122072;27;20205;-63
2022/09/04 17:12:02;;;;;;;2.60;2.40;;;;;;;;;;5125453;27;20291;-62
2022/09/04 17:14:56;;;;;;;2.63;2.43;;;;;;;;;;5122865;27;20205;-62
2022/09/04 17:17:46;;;;;;;2.43;2.23;;;;;;;;;;5117338;27;20209;-62
2022/09/04 17:20:39;;;;;;;2.70;2.47;;;;;;;;;;5122421;27;20201;-62
2022/09/04 17:23:32;;;;;;;1.97;1.87;;;;;;;;;;5119088;27;20208;-62
2022/09/04 17:26:32;;;;;;;2.60;2.40;;;;;;;;;;5124132;27;20210;-62
2022/09/04 17:29:24;;;;;;;2.50;2.30;;;;;;;;;;5121430;27;20248;-63
2022/09/04 17:32:20;;;;;;;1.83;1.70;;;;;;;;;;5121749;27;20662;-62
2022/09/04 17:35:16;;;;;;;2.27;2.07;;;;;;;;;;5106470;27;20243;-62
2022/09/04 17:38:11;;;;;;;1.80;1.70;;;;;;;;;;5104752;28;20711;-62
2022/09/04 17:41:12;;;;;;;2.40;2.20;;;;;;;;;;5100355;28;20206;-62
2022/09/04 17:44:09;;;;;;;2.33;2.10;;;;;;;;;;5103949;28;20209;-62
2022/09/04 17:47:08;;;;;;;2.10;2.00;;;;;;;;;;5102152;28;20271;-62
2022/09/04 17:49:58;;;;;;;2.40;2.20;;;;;;;;;;5108641;28;20223;-62
2022/09/04 17:52:58;;;;;;;2.13;1.93;;;;;;;;;;5097542;28;20209;-62
2022/09/04 17:55:47;;;;;;;2.10;1.80;;;;;;;;;;5098243;28;20197;-62
2022/09/04 17:58:38;;;;;;;2.13;1.93;;;;;;;;;;5095931;28;20216;-62
2022/09/04 18:01:30;;;;;;;2.13;2.03;;;;;;;;;;5097462;28;20214;-62
2022/09/04 18:04:27;;;;;;;2.03;1.80;;;;;;;;;;5095892;28;20205;-62
2022/09/04 18:07:26;;;;;;;1.83;1.73;;;;;;;;;;5101027;28;20763;-62
2022/09/04 18:10:22;;;;;;;2.30;1.70;;;;;;;;;;5096039;28;20209;-62
2022/09/04 18:13:15;;;;;;;3.10;2.00;;;;;;;;;;5097774;28;20675;-62